createdAt,value
2024-02-23T00:00:48.327Z,16.29
2024-02-23T00:01:38.323Z,16.30
2024-02-23T00:02:28.533Z,16.29
2024-02-23T00:03:18.425Z,16.28
2024-02-23T00:04:08.566Z,16.29
2024-02-23T00:04:58.622Z,16.29
2024-02-23T00:05:48.638Z,16.28
2024-02-23T00:06:38.712Z,16.27
2024-02-23T00:07:28.726Z,16.27
2024-02-23T00:08:18.835Z,16.28
2024-02-23T00:09:08.867Z,16.27
2024-02-23T00:09:59.188Z,16.29
2024-02-23T00:10:49.367Z,16.28
2024-02-23T00:11:39.419Z,16.29
2024-02-23T00:12:29.653Z,16.30
2024-02-23T00:13:19.698Z,16.29
2024-02-23T00:14:09.894Z,16.28
2024-02-23T00:15:00.121Z,16.29
2024-02-23T00:15:50.211Z,16.29
2024-02-23T00:16:40.220Z,16.28
2024-02-23T00:17:30.327Z,16.28
2024-02-23T00:18:20.413Z,16.28
2024-02-23T00:19:10.479Z,16.29
2024-02-23T00:20:00.510Z,16.29
2024-02-23T00:20:50.537Z,16.28
2024-02-23T00:21:40.646Z,16.29
2024-02-23T00:22:30.720Z,16.29
2024-02-23T00:23:20.835Z,16.27
2024-02-23T00:24:10.854Z,16.27
2024-02-23T00:25:00.914Z,16.27
2024-02-23T00:25:51.022Z,16.27
2024-02-23T00:26:41.012Z,16.26
2024-02-23T00:27:31.080Z,16.23
2024-02-23T00:28:21.164Z,16.24
2024-02-23T00:29:11.244Z,16.25
2024-02-23T00:30:01.278Z,16.26
2024-02-23T00:30:51.580Z,16.27
2024-02-23T00:31:41.612Z,16.27
2024-02-23T00:32:31.766Z,16.26
2024-02-23T00:33:21.763Z,16.26
2024-02-23T00:34:12.109Z,16.27
2024-02-23T00:35:01.861Z,16.28
2024-02-23T00:35:51.904Z,16.27
2024-02-23T00:36:41.923Z,16.27
2024-02-23T00:37:32.091Z,16.26
2024-02-23T00:38:22.187Z,16.26
2024-02-23T00:39:12.189Z,16.26
2024-02-23T00:40:02.257Z,16.25
2024-02-23T00:40:52.377Z,16.26
2024-02-23T00:41:42.385Z,16.27
2024-02-23T00:42:32.443Z,16.25
2024-02-23T00:43:22.510Z,16.26
2024-02-23T00:44:12.632Z,16.26
2024-02-23T00:45:02.634Z,16.26
2024-02-23T00:45:52.730Z,16.24
2024-02-23T00:46:43.004Z,16.24
2024-02-23T00:47:33.152Z,16.25
2024-02-23T00:48:23.170Z,16.26
2024-02-23T00:49:13.271Z,16.25
2024-02-23T00:50:03.379Z,16.23
2024-02-23T00:50:53.304Z,16.21
2024-02-23T00:51:43.319Z,16.22
2024-02-23T00:52:33.392Z,16.24
2024-02-23T00:53:23.585Z,16.22
2024-02-23T00:54:13.538Z,16.24
2024-02-23T00:55:03.609Z,16.23
2024-02-23T00:55:54.088Z,16.24
2024-02-23T00:56:50.522Z,16.22
2024-02-23T00:57:35.054Z,16.20
2024-02-23T00:58:24.075Z,16.21
2024-02-23T00:59:14.172Z,16.21
2024-02-23T01:00:04.282Z,16.21
2024-02-23T01:00:54.307Z,16.20
2024-02-23T01:01:44.300Z,16.19
2024-02-23T01:02:34.560Z,16.17
2024-02-23T01:03:24.654Z,16.19
2024-02-23T01:04:14.718Z,16.20
2024-02-23T01:05:04.775Z,16.23
2024-02-23T01:05:55.155Z,16.20
2024-02-23T01:06:45.226Z,16.20
2024-02-23T01:07:35.223Z,16.22
2024-02-23T01:08:25.663Z,16.23
2024-02-23T01:09:15.604Z,16.24
2024-02-23T01:10:05.679Z,16.24
2024-02-23T01:10:55.855Z,16.24
2024-02-23T01:11:45.845Z,16.23
2024-02-23T01:12:35.857Z,16.23
2024-02-23T01:13:26.096Z,16.25
2024-02-23T01:14:16.007Z,16.23
2024-02-23T01:15:06.422Z,16.20
2024-02-23T01:15:56.157Z,16.22
2024-02-23T01:16:46.185Z,16.22
2024-02-23T01:17:36.316Z,16.21
2024-02-23T01:18:26.373Z,16.22
2024-02-23T01:19:16.384Z,16.20
2024-02-23T01:20:06.414Z,16.20
2024-02-23T01:20:56.454Z,16.17
2024-02-23T01:21:46.463Z,16.19
2024-02-23T01:22:36.587Z,16.20
2024-02-23T01:23:26.634Z,16.22
2024-02-23T01:24:16.661Z,16.22
2024-02-23T01:25:06.724Z,16.23
2024-02-23T01:25:56.849Z,16.23
2024-02-23T01:26:46.838Z,16.25
2024-02-23T01:27:36.909Z,16.24
2024-02-23T01:28:26.988Z,16.25
2024-02-23T01:29:17.066Z,16.26
2024-02-23T01:30:07.090Z,16.26
2024-02-23T01:30:57.182Z,16.25
2024-02-23T01:31:47.306Z,16.25
2024-02-23T01:32:37.397Z,16.22
2024-02-23T01:33:27.357Z,16.20
2024-02-23T01:34:17.502Z,16.23
2024-02-23T01:35:07.413Z,16.21
2024-02-23T01:35:57.519Z,16.21
2024-02-23T01:36:47.511Z,16.24
2024-02-23T01:37:37.600Z,16.23
2024-02-23T01:38:27.938Z,16.22
2024-02-23T01:39:17.904Z,16.20
2024-02-23T01:40:07.976Z,16.23
2024-02-23T01:40:58.100Z,16.22
2024-02-23T01:41:48.100Z,16.20
2024-02-23T01:42:38.178Z,16.21
2024-02-23T01:43:28.237Z,16.22
2024-02-23T01:44:18.665Z,16.23
2024-02-23T01:45:08.393Z,16.23
2024-02-23T01:45:58.437Z,16.23
2024-02-23T01:46:48.489Z,16.21
2024-02-23T01:47:38.929Z,16.18
2024-02-23T01:48:28.915Z,16.19
2024-02-23T01:49:18.965Z,16.19
2024-02-23T01:50:09.048Z,16.21
2024-02-23T01:50:59.092Z,16.23
2024-02-23T01:51:49.055Z,16.23
2024-02-23T01:52:39.137Z,16.24
2024-02-23T01:53:29.299Z,16.24
2024-02-23T01:54:19.296Z,16.25
2024-02-23T01:55:09.396Z,16.21
2024-02-23T01:55:59.505Z,16.23
2024-02-23T01:56:49.546Z,16.24
2024-02-23T01:57:49.363Z,16.24
2024-02-23T01:58:30.592Z,16.21
2024-02-23T01:59:19.672Z,16.22
2024-02-23T02:00:09.706Z,16.20
2024-02-23T02:00:59.802Z,16.22
2024-02-23T02:01:49.833Z,16.19
2024-02-23T02:02:39.874Z,16.21
2024-02-23T02:03:29.977Z,16.22
2024-02-23T02:04:20.248Z,16.24
2024-02-23T02:05:10.294Z,16.21
2024-02-23T02:06:01.344Z,16.20
2024-02-23T02:06:50.402Z,16.22
2024-02-23T02:07:40.411Z,16.23
2024-02-23T02:08:30.499Z,16.24
2024-02-23T02:09:20.481Z,16.23
2024-02-23T02:10:10.545Z,16.23
2024-02-23T02:11:00.742Z,16.24
2024-02-23T02:11:50.726Z,16.23
2024-02-23T02:12:40.721Z,16.24
2024-02-23T02:13:30.807Z,16.26
2024-02-23T02:14:20.884Z,16.24
2024-02-23T02:15:10.941Z,16.22
2024-02-23T02:16:01.002Z,16.21
2024-02-23T02:16:51.103Z,16.21
2024-02-23T02:17:41.188Z,16.21
2024-02-23T02:18:31.229Z,16.19
2024-02-23T02:19:21.267Z,16.20
2024-02-23T02:20:11.462Z,16.19
2024-02-23T02:21:01.496Z,16.15
2024-02-23T02:21:51.571Z,16.16
2024-02-23T02:22:41.852Z,16.16
2024-02-23T02:23:32.027Z,16.15
2024-02-23T02:24:21.980Z,16.17
2024-02-23T02:25:12.301Z,16.18
2024-02-23T02:26:02.542Z,16.20
2024-02-23T02:26:52.418Z,16.18
2024-02-23T02:27:42.749Z,16.16
2024-02-23T02:28:32.817Z,16.17
2024-02-23T02:29:23.014Z,16.15
2024-02-23T02:30:13.206Z,16.14
2024-02-23T02:31:03.281Z,16.14
2024-02-23T02:31:53.331Z,16.18
2024-02-23T02:32:43.639Z,16.17
2024-02-23T02:33:33.488Z,16.15
2024-02-23T02:34:23.540Z,16.17
2024-02-23T02:35:13.775Z,16.17
2024-02-23T02:36:03.608Z,16.16
2024-02-23T02:36:53.679Z,16.15
2024-02-23T02:37:43.755Z,16.12
2024-02-23T02:38:33.886Z,16.12
2024-02-23T02:39:23.892Z,16.12
2024-02-23T02:40:14.006Z,16.16
2024-02-23T02:41:04.117Z,16.13
2024-02-23T02:41:54.108Z,16.11
2024-02-23T02:42:44.183Z,16.10
2024-02-23T02:43:34.371Z,16.11
2024-02-23T02:44:24.477Z,16.11
2024-02-23T02:45:16.245Z,16.11
2024-02-23T02:46:04.542Z,16.09
2024-02-23T02:46:54.653Z,16.10
2024-02-23T02:47:44.719Z,16.08
2024-02-23T02:48:34.766Z,16.07
2024-02-23T02:49:24.773Z,16.09
2024-02-23T02:50:14.860Z,16.12
2024-02-23T02:51:04.921Z,16.11
2024-02-23T02:51:54.965Z,16.10
2024-02-23T02:52:45.042Z,16.12
2024-02-23T02:53:35.130Z,16.17
2024-02-23T02:54:25.390Z,16.16
2024-02-23T02:55:15.443Z,16.18
2024-02-23T02:56:05.603Z,16.17
2024-02-23T02:56:55.565Z,16.14
2024-02-23T02:57:45.603Z,16.17
2024-02-23T02:58:35.673Z,16.16
2024-02-23T02:59:28.598Z,16.17
2024-02-23T03:00:15.783Z,16.16
2024-02-23T03:01:05.894Z,16.16
2024-02-23T03:01:55.987Z,16.16
2024-02-23T03:02:45.963Z,16.16
2024-02-23T03:03:36.093Z,16.17
2024-02-23T03:04:26.168Z,16.16
2024-02-23T03:05:16.139Z,16.16
2024-02-23T03:06:06.286Z,16.15
2024-02-23T03:06:56.286Z,16.16
2024-02-23T03:07:46.284Z,16.16
2024-02-23T03:08:36.392Z,16.17
2024-02-23T03:09:26.398Z,16.16
2024-02-23T03:10:16.510Z,16.16
2024-02-23T03:11:06.637Z,16.16
2024-02-23T03:11:56.681Z,16.16
2024-02-23T03:12:46.683Z,16.17
2024-02-23T03:13:36.738Z,16.15
2024-02-23T03:14:27.048Z,16.18
2024-02-23T03:15:16.870Z,16.19
2024-02-23T03:16:06.937Z,16.17
2024-02-23T03:16:57.035Z,16.16
2024-02-23T03:17:47.084Z,16.16
2024-02-23T03:18:37.067Z,16.16
2024-02-23T03:19:27.228Z,16.16
2024-02-23T03:20:17.266Z,16.17
2024-02-23T03:21:07.239Z,16.15
2024-02-23T03:21:57.291Z,16.17
2024-02-23T03:22:47.359Z,16.15
2024-02-23T03:23:37.457Z,16.13
2024-02-23T03:24:27.526Z,16.13
2024-02-23T03:25:17.552Z,16.14
2024-02-23T03:26:07.727Z,16.15
2024-02-23T03:26:57.766Z,16.15
2024-02-23T03:27:47.709Z,16.16
2024-02-23T03:28:37.746Z,16.18
2024-02-23T03:29:27.956Z,16.19
2024-02-23T03:30:17.977Z,16.17
2024-02-23T03:31:08.137Z,16.15
2024-02-23T03:31:58.340Z,16.15
2024-02-23T03:32:48.608Z,16.14
2024-02-23T03:33:38.617Z,16.13
2024-02-23T03:34:28.508Z,16.10
2024-02-23T03:35:18.620Z,16.12
2024-02-23T03:36:08.653Z,16.15
2024-02-23T03:36:58.730Z,16.15
2024-02-23T03:37:48.774Z,16.16
2024-02-23T03:38:38.920Z,16.15
2024-02-23T03:39:28.876Z,16.13
2024-02-23T03:40:18.912Z,16.18
2024-02-23T03:41:09.036Z,16.17
2024-02-23T03:41:59.292Z,16.18
2024-02-23T03:42:49.329Z,16.16
2024-02-23T03:43:39.497Z,16.14
2024-02-23T03:44:29.554Z,16.16
2024-02-23T03:45:19.501Z,16.19
2024-02-23T03:46:09.567Z,16.16
2024-02-23T03:46:59.681Z,16.16
2024-02-23T03:47:49.937Z,16.17
2024-02-23T03:48:39.793Z,16.18
2024-02-23T03:49:29.979Z,16.18
2024-02-23T03:50:19.950Z,16.18
2024-02-23T03:51:09.983Z,16.17
2024-02-23T03:52:00.073Z,16.18
2024-02-23T03:52:50.158Z,16.17
2024-02-23T03:53:40.186Z,16.16
2024-02-23T03:54:30.282Z,16.19
2024-02-23T03:55:20.333Z,16.19
2024-02-23T03:56:10.412Z,16.19
2024-02-23T03:57:00.495Z,16.19
2024-02-23T03:57:50.691Z,16.19
2024-02-23T03:58:40.721Z,16.17
2024-02-23T03:59:30.811Z,16.18
2024-02-23T04:00:20.849Z,16.15
2024-02-23T04:01:10.948Z,16.15
2024-02-23T04:02:01.056Z,16.15
2024-02-23T04:02:51.057Z,16.17
2024-02-23T04:03:41.149Z,16.17
2024-02-23T04:04:31.223Z,16.16
2024-02-23T04:05:21.301Z,16.17
2024-02-23T04:06:11.296Z,16.16
2024-02-23T04:07:01.614Z,16.15
2024-02-23T04:07:51.693Z,16.16
2024-02-23T04:08:41.668Z,16.16
2024-02-23T04:09:31.731Z,16.17
2024-02-23T04:10:21.817Z,16.19
2024-02-23T04:11:11.970Z,16.17
2024-02-23T04:12:02.138Z,16.19
2024-02-23T04:12:52.022Z,16.18
2024-02-23T04:13:42.068Z,16.15
2024-02-23T04:14:32.202Z,16.17
2024-02-23T04:15:22.200Z,16.17
2024-02-23T04:16:12.276Z,16.17
2024-02-23T04:17:02.353Z,16.17
2024-02-23T04:17:52.441Z,16.19
2024-02-23T04:18:42.434Z,16.18
2024-02-23T04:19:32.484Z,16.18
2024-02-23T04:20:22.558Z,16.17
2024-02-23T04:21:12.555Z,16.15
2024-02-23T04:22:02.643Z,16.17
2024-02-23T04:22:52.691Z,16.18
2024-02-23T04:23:42.750Z,16.13
2024-02-23T04:24:32.811Z,16.17
2024-02-23T04:25:22.877Z,16.18
2024-02-23T04:26:13.032Z,16.17
2024-02-23T04:27:03.014Z,16.18
2024-02-23T04:27:53.070Z,16.16
2024-02-23T04:28:43.156Z,16.16
2024-02-23T04:29:33.553Z,16.16
2024-02-23T04:30:23.485Z,16.17
2024-02-23T04:31:13.560Z,16.15
2024-02-23T04:32:03.671Z,16.16
2024-02-23T04:32:53.704Z,16.15
2024-02-23T04:33:43.833Z,16.15
2024-02-23T04:34:33.876Z,16.17
2024-02-23T04:35:23.870Z,16.15
2024-02-23T04:36:13.906Z,16.18
2024-02-23T04:37:04.012Z,16.18
2024-02-23T04:37:54.045Z,16.17
2024-02-23T04:38:44.078Z,16.16
2024-02-23T04:39:34.151Z,16.18
2024-02-23T04:40:24.214Z,16.17
2024-02-23T04:41:14.286Z,16.16
2024-02-23T04:42:04.377Z,16.15
2024-02-23T04:42:54.434Z,16.13
2024-02-23T04:43:44.431Z,16.14
2024-02-23T04:44:34.597Z,16.17
2024-02-23T04:45:24.559Z,16.18
2024-02-23T04:46:14.624Z,16.18
2024-02-23T04:47:04.767Z,16.17
2024-02-23T04:47:54.784Z,16.17
2024-02-23T04:48:44.851Z,16.17
2024-02-23T04:49:34.891Z,16.16
2024-02-23T04:50:25.050Z,16.17
2024-02-23T04:51:14.981Z,16.17
2024-02-23T04:52:05.227Z,16.19
2024-02-23T04:52:55.318Z,16.18
2024-02-23T04:53:45.370Z,16.15
2024-02-23T04:54:35.770Z,16.16
2024-02-23T04:55:25.748Z,16.16
2024-02-23T04:56:15.819Z,16.16
2024-02-23T04:57:05.949Z,16.15
2024-02-23T04:57:55.895Z,16.13
2024-02-23T04:58:45.911Z,16.15
2024-02-23T04:59:36.005Z,16.16
2024-02-23T05:00:26.039Z,16.18
2024-02-23T05:01:16.179Z,16.17
2024-02-23T05:02:06.215Z,16.18
2024-02-23T05:02:56.274Z,16.17
2024-02-23T05:03:46.441Z,16.14
2024-02-23T05:04:36.358Z,16.14
2024-02-23T05:05:26.414Z,16.13
2024-02-23T05:06:16.532Z,16.13
2024-02-23T05:07:06.519Z,16.15
2024-02-23T05:07:56.805Z,16.17
2024-02-23T05:08:46.838Z,16.17
2024-02-23T05:09:36.952Z,16.18
2024-02-23T05:10:27.192Z,16.16
2024-02-23T05:11:17.308Z,16.15
2024-02-23T05:12:07.518Z,16.14
2024-02-23T05:12:57.427Z,16.16
2024-02-23T05:13:47.446Z,16.17
2024-02-23T05:14:37.546Z,16.15
2024-02-23T05:15:27.533Z,16.15
2024-02-23T05:16:17.607Z,16.15
2024-02-23T05:17:07.744Z,16.16
2024-02-23T05:17:57.784Z,16.15
2024-02-23T05:18:47.800Z,16.14
2024-02-23T05:19:37.902Z,16.14
2024-02-23T05:20:27.979Z,16.15
2024-02-23T05:21:17.959Z,16.17
2024-02-23T05:22:08.039Z,16.16
2024-02-23T05:22:58.115Z,16.15
2024-02-23T05:23:48.100Z,16.14
2024-02-23T05:24:38.171Z,16.16
2024-02-23T05:25:28.206Z,16.14
2024-02-23T05:26:18.305Z,16.14
2024-02-23T05:27:08.329Z,16.11
2024-02-23T05:27:58.351Z,16.10
2024-02-23T05:28:48.444Z,16.11
2024-02-23T05:29:38.481Z,16.13
2024-02-23T05:30:28.538Z,16.14
2024-02-23T05:31:18.615Z,16.15
2024-02-23T05:32:08.745Z,16.12
2024-02-23T05:32:58.737Z,16.12
2024-02-23T05:33:49.937Z,16.12
2024-02-23T05:34:38.922Z,16.13
2024-02-23T05:35:28.916Z,16.09
2024-02-23T05:36:18.952Z,16.10
2024-02-23T05:37:09.031Z,16.08
2024-02-23T05:37:59.142Z,16.10
2024-02-23T05:38:49.117Z,16.11
2024-02-23T05:39:39.203Z,16.10
2024-02-23T05:40:29.278Z,16.09
2024-02-23T05:41:19.370Z,16.09
2024-02-23T05:42:09.401Z,16.10
2024-02-23T05:42:59.501Z,16.09
2024-02-23T05:43:49.772Z,16.10
2024-02-23T05:44:39.828Z,16.12
2024-02-23T05:45:29.826Z,16.11
2024-02-23T05:46:19.892Z,16.08
2024-02-23T05:47:09.993Z,16.11
2024-02-23T05:48:00.194Z,16.13
2024-02-23T05:48:50.208Z,16.11
2024-02-23T05:49:40.164Z,16.11
2024-02-23T05:50:30.309Z,16.10
2024-02-23T05:51:20.274Z,16.11
2024-02-23T05:52:10.382Z,16.11
2024-02-23T05:53:00.675Z,16.11
2024-02-23T05:53:50.677Z,16.11
2024-02-23T05:54:40.752Z,16.12
2024-02-23T05:55:30.814Z,16.12
2024-02-23T05:56:20.922Z,16.13
2024-02-23T05:57:10.949Z,16.11
2024-02-23T05:58:00.978Z,16.10
2024-02-23T05:58:51.097Z,16.11
2024-02-23T05:59:41.114Z,16.11
2024-02-23T06:00:31.247Z,16.11
2024-02-23T06:01:21.217Z,16.12
2024-02-23T06:02:11.469Z,16.10
2024-02-23T06:03:01.489Z,16.11
2024-02-23T06:03:51.566Z,16.11
2024-02-23T06:04:41.616Z,16.10
2024-02-23T06:05:31.835Z,16.11
2024-02-23T06:06:21.891Z,16.11
2024-02-23T06:07:11.804Z,16.12
2024-02-23T06:08:01.844Z,16.11
2024-02-23T06:08:51.871Z,16.12
2024-02-23T06:09:41.956Z,16.12
2024-02-23T06:10:32.011Z,16.11
2024-02-23T06:11:22.453Z,16.09
2024-02-23T06:12:12.550Z,16.11
2024-02-23T06:13:04.580Z,16.10
2024-02-23T06:13:52.573Z,16.10
2024-02-23T06:14:42.552Z,16.09
2024-02-23T06:15:32.613Z,16.09
2024-02-23T06:16:22.701Z,16.10
2024-02-23T06:17:12.804Z,16.11
2024-02-23T06:18:02.839Z,16.10
2024-02-23T06:18:52.880Z,16.11
2024-02-23T06:19:42.982Z,16.13
2024-02-23T06:20:33.343Z,16.14
2024-02-23T06:21:23.298Z,16.15
2024-02-23T06:22:13.416Z,16.11
2024-02-23T06:23:03.683Z,16.11
2024-02-23T06:23:53.735Z,16.09
2024-02-23T06:24:43.798Z,16.06
2024-02-23T06:25:34.125Z,16.09
2024-02-23T06:26:24.252Z,16.09
2024-02-23T06:27:14.237Z,16.09
2024-02-23T06:28:04.551Z,16.12
2024-02-23T06:28:54.659Z,16.09
2024-02-23T06:29:44.692Z,16.10
2024-02-23T06:30:35.001Z,16.11
2024-02-23T06:31:25.088Z,16.13
2024-02-23T06:32:15.175Z,16.13
2024-02-23T06:33:05.244Z,16.12
2024-02-23T06:33:55.339Z,16.10
2024-02-23T06:34:45.304Z,16.11
2024-02-23T06:35:35.414Z,16.12
2024-02-23T06:36:25.413Z,16.14
2024-02-23T06:37:15.514Z,16.13
2024-02-23T06:38:05.562Z,16.11
2024-02-23T06:38:55.589Z,16.10
2024-02-23T06:39:45.670Z,16.12
2024-02-23T06:40:45.902Z,16.13
2024-02-23T06:41:26.821Z,16.13
2024-02-23T06:42:15.841Z,16.13
2024-02-23T06:43:05.868Z,16.12
2024-02-23T06:43:56.021Z,16.13
2024-02-23T06:44:45.978Z,16.10
2024-02-23T06:45:36.038Z,16.11
2024-02-23T06:46:26.104Z,16.10
2024-02-23T06:47:16.500Z,16.10
2024-02-23T06:48:06.487Z,16.11
2024-02-23T06:48:56.613Z,16.12
2024-02-23T06:49:46.768Z,16.12
2024-02-23T06:50:37.190Z,16.12
2024-02-23T06:51:26.889Z,16.13
2024-02-23T06:52:17.219Z,16.13
2024-02-23T06:53:07.370Z,16.10
2024-02-23T06:53:57.348Z,16.09
2024-02-23T06:54:47.673Z,16.10
2024-02-23T06:55:37.759Z,16.08
2024-02-23T06:56:27.823Z,16.07
2024-02-23T06:57:17.854Z,16.06
2024-02-23T06:58:07.894Z,16.07
2024-02-23T06:58:57.948Z,16.08
2024-02-23T06:59:47.992Z,16.06
2024-02-23T07:00:38.073Z,16.06
2024-02-23T07:01:28.131Z,16.07
2024-02-23T07:02:18.272Z,16.08
2024-02-23T07:03:08.275Z,16.11
2024-02-23T07:03:58.591Z,16.11
2024-02-23T07:04:48.591Z,16.10
2024-02-23T07:05:38.905Z,16.10
2024-02-23T07:06:28.728Z,16.11
2024-02-23T07:07:18.806Z,16.10
2024-02-23T07:08:08.840Z,16.08
2024-02-23T07:08:58.898Z,16.11
2024-02-23T07:09:48.986Z,16.12
2024-02-23T07:10:39.044Z,16.11
2024-02-23T07:11:29.167Z,16.10
2024-02-23T07:12:19.330Z,16.10
2024-02-23T07:13:09.482Z,16.12
2024-02-23T07:13:59.583Z,16.10
2024-02-23T07:14:49.621Z,16.13
2024-02-23T07:15:39.950Z,16.13
2024-02-23T07:16:29.977Z,16.13
2024-02-23T07:17:20.099Z,16.12
2024-02-23T07:18:10.213Z,16.11
2024-02-23T07:19:00.178Z,16.11
2024-02-23T07:19:50.249Z,16.14
2024-02-23T07:20:40.370Z,16.16
2024-02-23T07:21:30.304Z,16.15
2024-02-23T07:22:20.462Z,16.14
2024-02-23T07:23:10.530Z,16.13
2024-02-23T07:24:00.557Z,16.12
2024-02-23T07:24:50.678Z,16.13
2024-02-23T07:25:40.675Z,16.13
2024-02-23T07:26:30.931Z,16.12
2024-02-23T07:27:20.811Z,16.15
2024-02-23T07:28:10.838Z,16.15
2024-02-23T07:29:00.923Z,16.13
2024-02-23T07:29:51.057Z,16.10
2024-02-23T07:30:41.006Z,16.11
2024-02-23T07:31:31.071Z,16.10
2024-02-23T07:32:21.251Z,16.11
2024-02-23T07:33:11.213Z,16.12
2024-02-23T07:34:01.465Z,16.13
2024-02-23T07:34:51.324Z,16.15
2024-02-23T07:35:41.433Z,16.13
2024-02-23T07:36:31.450Z,16.14
2024-02-23T07:37:21.523Z,16.15
2024-02-23T07:38:11.602Z,16.12
2024-02-23T07:39:01.609Z,16.14
2024-02-23T07:39:51.673Z,16.14
2024-02-23T07:40:41.752Z,16.13
2024-02-23T07:41:31.895Z,16.13
2024-02-23T07:42:22.017Z,16.13
2024-02-23T07:43:12.031Z,16.13
2024-02-23T07:44:02.137Z,16.14
2024-02-23T07:44:52.435Z,16.15
2024-02-23T07:45:42.509Z,16.14
2024-02-23T07:46:32.583Z,16.11
2024-02-23T07:47:22.970Z,16.12
2024-02-23T07:48:13.051Z,16.14
2024-02-23T07:49:03.116Z,16.14
2024-02-23T07:49:53.364Z,16.13
2024-02-23T07:50:43.445Z,16.13
2024-02-23T07:51:33.449Z,16.12
2024-02-23T07:52:23.527Z,16.14
2024-02-23T07:53:13.528Z,16.13
2024-02-23T07:54:03.558Z,16.12
2024-02-23T07:54:53.604Z,16.10
2024-02-23T07:55:43.670Z,16.10
2024-02-23T07:56:33.887Z,16.11
2024-02-23T07:57:23.843Z,16.13
2024-02-23T07:58:13.866Z,16.14
2024-02-23T07:59:03.972Z,16.13
2024-02-23T07:59:53.990Z,16.15
2024-02-23T08:00:44.102Z,16.13
2024-02-23T08:01:34.135Z,16.14
2024-02-23T08:02:24.264Z,16.15
2024-02-23T08:03:14.238Z,16.14
2024-02-23T08:04:04.302Z,16.13
2024-02-23T08:04:54.468Z,16.14
2024-02-23T08:05:44.423Z,16.14
2024-02-23T08:06:34.498Z,16.16
2024-02-23T08:07:24.515Z,16.12
2024-02-23T08:08:14.579Z,16.10
2024-02-23T08:09:04.643Z,16.11
2024-02-23T08:09:54.719Z,16.12
2024-02-23T08:10:44.740Z,16.12
2024-02-23T08:11:37.052Z,16.14
2024-02-23T08:12:24.967Z,16.13
2024-02-23T08:13:14.934Z,16.12
2024-02-23T08:14:05.096Z,16.09
2024-02-23T08:14:55.074Z,16.09
2024-02-23T08:15:45.124Z,16.11
2024-02-23T08:16:35.202Z,16.12
2024-02-23T08:17:25.371Z,16.13
2024-02-23T08:18:15.355Z,16.13
2024-02-23T08:19:05.418Z,16.13
2024-02-23T08:19:55.557Z,16.14
2024-02-23T08:20:45.877Z,16.15
2024-02-23T08:21:35.880Z,16.16
2024-02-23T08:22:25.940Z,16.13
2024-02-23T08:23:16.008Z,16.12
2024-02-23T08:24:06.017Z,16.12
2024-02-23T08:24:56.084Z,16.15
2024-02-23T08:25:46.151Z,16.16
2024-02-23T08:26:36.293Z,16.17
2024-02-23T08:27:26.300Z,16.17
2024-02-23T08:28:16.350Z,16.17
2024-02-23T08:29:06.517Z,16.17
2024-02-23T08:29:56.503Z,16.16
2024-02-23T08:30:46.512Z,16.15
2024-02-23T08:31:41.171Z,16.11
2024-02-23T08:32:26.780Z,16.07
2024-02-23T08:33:16.783Z,16.10
2024-02-23T08:34:06.796Z,16.10
2024-02-23T08:34:56.837Z,16.10
2024-02-23T08:35:46.902Z,16.10
2024-02-23T08:36:37.137Z,16.11
2024-02-23T08:37:26.989Z,16.13
2024-02-23T08:38:17.188Z,16.15
2024-02-23T08:39:07.099Z,16.14
2024-02-23T08:39:57.161Z,16.12
2024-02-23T08:40:47.484Z,16.09
2024-02-23T08:41:37.586Z,16.12
2024-02-23T08:42:27.593Z,16.13
2024-02-23T08:43:17.674Z,16.13
2024-02-23T08:44:07.707Z,16.14
2024-02-23T08:44:57.760Z,16.14
2024-02-23T08:45:47.785Z,16.14
2024-02-23T08:46:37.886Z,16.14
2024-02-23T08:47:27.995Z,16.14
2024-02-23T08:48:18.091Z,16.15
2024-02-23T08:49:08.130Z,16.15
2024-02-23T08:49:58.361Z,16.12
2024-02-23T08:50:48.438Z,16.10
2024-02-23T08:51:38.474Z,16.11
2024-02-23T08:52:28.571Z,16.11
2024-02-23T08:53:18.737Z,16.13
2024-02-23T08:54:08.660Z,16.13
2024-02-23T08:54:58.685Z,16.14
2024-02-23T08:55:48.752Z,16.14
2024-02-23T08:56:38.946Z,16.13
2024-02-23T08:57:28.873Z,16.12
2024-02-23T08:58:18.905Z,16.14
2024-02-23T08:59:09.012Z,16.15
2024-02-23T08:59:59.044Z,16.15
2024-02-23T09:00:49.157Z,16.15
2024-02-23T09:01:39.174Z,16.16
2024-02-23T09:02:29.309Z,16.17
2024-02-23T09:03:19.273Z,16.17
2024-02-23T09:04:09.345Z,16.19
2024-02-23T09:04:59.688Z,16.16
2024-02-23T09:05:49.701Z,16.14
2024-02-23T09:06:40.478Z,16.14
2024-02-23T09:07:29.855Z,16.14
2024-02-23T09:08:19.904Z,16.11
2024-02-23T09:09:10.030Z,16.13
2024-02-23T09:10:00.218Z,16.14
2024-02-23T09:10:50.197Z,16.12
2024-02-23T09:11:40.250Z,16.14
2024-02-23T09:12:30.288Z,16.14
2024-02-23T09:13:20.342Z,16.11
2024-02-23T09:14:10.454Z,16.13
2024-02-23T09:15:00.471Z,16.14
2024-02-23T09:15:50.501Z,16.13
2024-02-23T09:16:40.603Z,16.15
2024-02-23T09:17:30.803Z,16.16
2024-02-23T09:18:20.980Z,16.18
2024-02-23T09:19:11.056Z,16.18
2024-02-23T09:20:01.145Z,16.16
2024-02-23T09:20:51.230Z,16.16
2024-02-23T09:21:41.173Z,16.15
2024-02-23T09:22:31.252Z,16.18
2024-02-23T09:23:21.306Z,16.15
2024-02-23T09:24:11.342Z,16.13
2024-02-23T09:25:01.454Z,16.14
2024-02-23T09:25:51.592Z,16.13
2024-02-23T09:26:41.640Z,16.15
2024-02-23T09:27:31.886Z,16.13
2024-02-23T09:28:21.915Z,16.15
2024-02-23T09:29:12.022Z,16.12
2024-02-23T09:30:02.104Z,16.12
2024-02-23T09:30:52.098Z,16.12
2024-02-23T09:31:42.169Z,16.14
2024-02-23T09:32:32.362Z,16.14
2024-02-23T09:33:22.387Z,16.12
2024-02-23T09:34:12.409Z,16.14
2024-02-23T09:35:02.542Z,16.14
2024-02-23T09:35:52.512Z,16.16
2024-02-23T09:36:44.833Z,16.17
2024-02-23T09:37:32.666Z,16.12
2024-02-23T09:38:22.859Z,16.12
2024-02-23T09:39:12.868Z,16.10
2024-02-23T09:40:02.938Z,16.09
2024-02-23T09:40:53.049Z,16.10
2024-02-23T09:41:43.115Z,16.08
2024-02-23T09:42:33.186Z,16.11
2024-02-23T09:43:23.171Z,16.14
2024-02-23T09:44:13.224Z,16.14
2024-02-23T09:45:03.280Z,16.15
2024-02-23T09:45:53.303Z,16.13
2024-02-23T09:46:43.382Z,16.12
2024-02-23T09:47:33.802Z,16.11
2024-02-23T09:48:23.897Z,16.09
2024-02-23T09:49:13.831Z,16.10
2024-02-23T09:50:03.977Z,16.12
2024-02-23T09:50:53.928Z,16.12
2024-02-23T09:51:43.997Z,16.11
2024-02-23T09:52:34.122Z,16.12
2024-02-23T09:53:24.131Z,16.11
2024-02-23T09:54:14.926Z,16.09
2024-02-23T09:55:04.246Z,16.09
2024-02-23T09:55:54.457Z,16.08
2024-02-23T09:56:44.672Z,16.12
2024-02-23T09:57:34.723Z,16.15
2024-02-23T09:58:24.729Z,16.13
2024-02-23T09:59:15.098Z,16.14
2024-02-23T10:00:05.132Z,16.12
2024-02-23T10:00:55.206Z,16.11
2024-02-23T10:01:45.529Z,16.10
2024-02-23T10:02:35.648Z,16.10
2024-02-23T10:03:25.677Z,16.08
2024-02-23T10:04:15.687Z,16.09
2024-02-23T10:05:05.859Z,16.11
2024-02-23T10:05:55.855Z,16.11
2024-02-23T10:06:45.967Z,16.13
2024-02-23T10:07:36.052Z,16.12
2024-02-23T10:08:26.114Z,16.11
2024-02-23T10:09:16.005Z,16.09
2024-02-23T10:10:06.088Z,16.09
2024-02-23T10:10:56.506Z,16.11
2024-02-23T10:11:46.574Z,16.11
2024-02-23T10:12:36.605Z,16.11
2024-02-23T10:13:26.610Z,16.12
2024-02-23T10:14:16.648Z,16.11
2024-02-23T10:15:06.726Z,16.14
2024-02-23T10:16:05.929Z,16.12
2024-02-23T10:16:47.840Z,16.10
2024-02-23T10:17:37.230Z,16.12
2024-02-23T10:18:27.081Z,16.15
2024-02-23T10:19:17.136Z,16.14
2024-02-23T10:20:07.177Z,16.12
2024-02-23T10:20:57.141Z,16.13
2024-02-23T10:21:47.176Z,16.15
2024-02-23T10:22:37.371Z,16.13
2024-02-23T10:23:27.393Z,16.12
2024-02-23T10:24:17.468Z,16.13
2024-02-23T10:25:07.531Z,16.12
2024-02-23T10:25:57.688Z,16.10
2024-02-23T10:26:47.708Z,16.10
2024-02-23T10:27:37.753Z,16.10
2024-02-23T10:28:27.775Z,16.11
2024-02-23T10:29:19.351Z,16.12
2024-02-23T10:30:07.878Z,16.12
2024-02-23T10:30:57.940Z,16.10
2024-02-23T10:31:48.224Z,16.11
2024-02-23T10:32:38.421Z,16.12
2024-02-23T10:33:28.389Z,16.13
2024-02-23T10:34:18.472Z,16.15
2024-02-23T10:35:08.608Z,16.15
2024-02-23T10:35:58.600Z,16.13
2024-02-23T10:36:48.616Z,16.14
2024-02-23T10:37:38.707Z,16.14
2024-02-23T10:38:28.816Z,16.15
2024-02-23T10:39:18.803Z,16.16
2024-02-23T10:40:08.839Z,16.16
2024-02-23T10:40:58.932Z,16.14
2024-02-23T10:41:48.986Z,16.12
2024-02-23T10:42:39.331Z,16.15
2024-02-23T10:43:29.358Z,16.13
2024-02-23T10:44:19.519Z,16.11
2024-02-23T10:45:09.513Z,16.09